Time;durP1;ratioP1;P1;durP2;ratioP2;P2;SDS_P1;SDS_P2;PMS_P1;PMS_P2;Temp;Humidity;BMP_temperature;BMP_pressure;BME280_temperature;BME280_humidity;BME280_pressure;Samples;Min_cycle;Max_cycle;Signal;HPM_P1;HPM_P2
2020/12/27 00:02:23;;;;;;;79.42;29.05;;;;;;;-2.39;78.60;99293.02;2161246;82;21298;-70
2020/12/27 00:05:25;;;;;;;70.92;27.37;;;;;;;-2.35;78.40;99290.88;2161660;82;21596;-71
2020/12/27 00:08:27;;;;;;;73.97;29.05;;;;;;;-2.39;78.43;99281.45;2161403;82;21693;-69
2020/12/27 00:11:29;;;;;;;83.17;31.42;;;;;;;-2.40;78.52;99282.30;2161155;82;21131;-69
2020/12/27 00:14:31;;;;;;;86.30;32.17;;;;;;;-2.40;78.55;99269.02;2140043;82;21269;-70
2020/12/27 00:17:34;;;;;;;74.50;28.60;;;;;;;-2.39;78.48;99277.59;2161173;82;21311;-70
2020/12/27 00:20:36;;;;;;;76.00;29.45;;;;;;;-2.41;78.35;99269.02;2161370;82;21317;-66
2020/12/27 00:23:38;;;;;;;75.00;28.17;;;;;;;-2.38;78.51;99266.47;2161227;82;21277;-69
2020/12/27 00:26:40;;;;;;;78.00;28.67;;;;;;;-2.40;78.19;99263.88;2161619;82;21108;-70
2020/12/27 00:29:42;;;;;;;75.92;28.92;;;;;;;-2.46;78.42;99260.92;2161370;82;21714;-70
2020/12/27 00:32:44;;;;;;;66.62;27.10;;;;;;;-2.52;78.33;99263.47;2161590;82;21151;-70
2020/12/27 00:35:46;;;;;;;72.55;27.58;;;;;;;-2.56;78.45;99260.47;2161363;82;21710;-70
2020/12/27 00:38:49;;;;;;;73.20;27.77;;;;;;;-2.56;78.37;99250.64;2161151;82;21123;-70
2020/12/27 00:41:51;;;;;;;75.32;27.60;;;;;;;-2.64;78.26;99251.50;2160865;82;21627;-70
2020/12/27 00:44:56;;;;;;;69.10;26.87;;;;;;;-2.67;78.46;99260.91;2140079;82;21717;-70
2020/12/27 00:48:00;;;;;;;70.22;27.05;;;;;;;-2.66;78.41;99263.50;2161028;82;21131;-71
2020/12/27 00:51:02;;;;;;;92.37;33.53;;;;;;;-2.70;78.33;99257.06;2172412;81;21285;-70
2020/12/27 00:54:04;;;;;;;74.03;29.27;;;;;;;-2.74;78.49;99254.94;2178972;82;21099;-70
2020/12/27 00:57:06;;;;;;;71.50;28.23;;;;;;;-2.73;78.23;99239.09;2178727;82;21769;-66
2020/12/27 01:00:08;;;;;;;83.20;31.95;;;;;;;-2.72;78.35;99243.38;2178509;82;21285;-65
2020/12/27 01:03:10;;;;;;;77.70;30.05;;;;;;;-2.71;78.06;99244.66;2178739;82;21269;-64
2020/12/27 01:06:12;;;;;;;72.85;27.22;;;;;;;-2.76;78.07;99233.96;2150745;82;21703;-63
2020/12/27 01:09:15;;;;;;;;;;;;;;;-2.82;78.16;99232.25;2181070;82;21281;-66
2020/12/27 01:12:17;;;;;;;78.83;27.90;;;;;;;-2.80;78.18;99233.13;2178645;82;20221;-66
2020/12/27 01:15:19;;;;;;;79.90;30.82;;;;;;;-2.84;78.13;99223.70;2178865;82;21309;-66
2020/12/27 01:18:22;;;;;;;;;;;;;;;-2.89;78.07;99222.40;2180994;82;21748;-66
2020/12/27 01:21:24;;;;;;;65.03;25.10;;;;;;;-2.93;78.02;99223.28;2178779;82;20240;-66
2020/12/27 01:24:26;;;;;;;63.17;22.45;;;;;;;-2.93;78.20;99215.58;2178974;82;21175;-66
2020/12/27 01:27:28;;;;;;;63.80;22.15;;;;;;;-2.90;78.13;99202.74;2178652;82;21142;-68
2020/12/27 01:30:30;;;;;;;58.78;23.30;;;;;;;-2.92;77.75;99198.45;2178884;82;21590;-66
2020/12/27 01:33:33;;;;;;;59.10;22.13;;;;;;;-2.92;77.81;99199.73;2178517;82;21297;-65
2020/12/27 01:36:35;;;;;;;54.93;21.75;;;;;;;-2.94;77.96;99188.19;2178881;82;21281;-66
2020/12/27 01:39:37;;;;;;;59.38;22.58;;;;;;;-2.94;77.70;99185.63;2178470;82;21308;-64
2020/12/27 01:42:39;;;;;;;57.43;21.27;;;;;;;-2.94;77.57;99182.18;2178680;82;21276;-65
2020/12/27 01:45:41;;;;;;;55.05;20.52;;;;;;;-2.99;77.62;99180.91;2178768;82;21273;-65
2020/12/27 01:48:44;;;;;;;47.55;19.32;;;;;;;-3.04;77.60;99187.33;2178600;82;21700;-68
2020/12/27 01:51:46;;;;;;;58.73;21.05;;;;;;;-3.07;77.46;99190.34;2178386;81;21294;-69
2020/12/27 01:54:48;;;;;;;57.48;21.87;;;;;;;-3.11;77.70;99194.61;2178920;82;21442;-69
2020/12/27 01:57:50;;;;;;;58.45;21.00;;;;;;;-3.07;77.51;99191.63;2178741;82;21265;-70
2020/12/27 02:00:53;;;;;;;51.45;18.57;;;;;;;-3.10;77.14;99186.06;2178696;82;21273;-69
2020/12/27 02:03:55;;;;;;;50.98;19.25;;;;;;;-3.14;77.13;99187.75;2178345;82;21292;-69
2020/12/27 02:06:57;;;;;;;50.40;18.32;;;;;;;-3.18;77.21;99179.63;2178475;82;21272;-70
2020/12/27 02:09:59;;;;;;;51.50;19.07;;;;;;;-3.20;77.26;99180.50;2178623;82;21273;-68
2020/12/27 02:13:02;;;;;;;50.55;18.35;;;;;;;-3.19;77.04;99186.04;2178472;82;21123;-68
2020/12/27 02:16:04;;;;;;;48.48;18.05;;;;;;;-3.25;77.12;99166.36;2178508;82;21257;-64
2020/12/27 02:19:06;;;;;;;56.15;19.50;;;;;;;-3.23;77.13;99164.67;2178505;82;21285;-69
2020/12/27 02:22:09;;;;;;;57.85;18.35;;;;;;;-3.19;76.81;99158.69;2178436;82;21115;-70
2020/12/27 02:25:11;;;;;;;60.58;19.70;;;;;;;-3.16;77.04;99156.52;2178479;82;21280;-70
2020/12/27 02:28:13;;;;;;;56.15;19.40;;;;;;;-3.17;76.80;99135.16;2178602;82;21705;-69
2020/12/27 02:31:15;;;;;;;51.95;17.87;;;;;;;-3.17;76.74;99140.72;2178444;82;21280;-70
2020/12/27 02:34:17;;;;;;;49.58;16.95;;;;;;;-3.16;76.71;99134.30;2178655;82;21286;-69
2020/12/27 02:37:19;;;;;;;53.23;16.42;;;;;;;-3.11;76.54;99133.45;2178478;82;21272;-67
2020/12/27 02:40:21;;;;;;;48.13;15.48;;;;;;;-3.09;76.29;99133.01;2178436;82;21304;-69
2020/12/27 02:43:23;;;;;;;50.17;15.98;;;;;;;-3.10;76.25;99124.47;2178541;82;21713;-67
2020/12/27 02:46:26;;;;;;;43.60;15.65;;;;;;;-3.15;76.43;99118.06;2178494;82;21285;-65
2020/12/27 02:49:28;;;;;;;42.95;16.30;;;;;;;-3.10;75.94;99109.06;2178482;82;21745;-69
2020/12/27 02:52:32;;;;;;;45.03;16.65;;;;;;;-3.14;76.27;99102.23;2161276;81;21159;-65
2020/12/27 02:55:34;;;;;;;39.95;15.15;;;;;;;-3.17;76.32;99094.09;2161381;82;21312;-65
2020/12/27 02:58:36;;;;;;;64.62;23.32;;;;;;;-3.23;76.26;99085.13;2161276;82;21754;-65
2020/12/27 03:01:38;;;;;;;44.48;15.72;;;;;;;-3.25;76.17;99075.28;2161302;82;21293;-65
2020/12/27 03:04:40;;;;;;;62.45;21.15;;;;;;;-3.28;76.28;99076.57;2161290;82;21127;-65
2020/12/27 03:07:43;;;;;;;56.48;20.02;;;;;;;-3.28;76.36;99079.58;2161243;82;21320;-64
2020/12/27 03:10:45;;;;;;;;;;;;;;;-3.32;76.49;99079.59;2163716;82;21269;-66
2020/12/27 03:13:47;;;;;;;63.87;23.57;;;;;;;-3.34;76.71;99073.58;2161336;82;20246;-66
2020/12/27 03:16:49;;;;;;;85.72;32.08;;;;;;;-3.37;76.68;99077.88;2161715;82;21289;-64
2020/12/27 03:19:52;;;;;;;90.35;28.80;;;;;;;-3.42;76.67;99074.45;2161309;82;21749;-65
2020/12/27 03:22:54;;;;;;;47.10;17.02;;;;;;;-3.49;76.98;99068.05;2161438;82;21575;-65
2020/12/27 03:25:56;;;;;;;48.55;16.62;;;;;;;-3.49;77.09;99060.34;2161227;82;21310;-65
2020/12/27 03:28:59;;;;;;;46.10;16.40;;;;;;;-3.50;77.02;99064.20;2161363;82;21199;-64
2020/12/27 03:32:01;;;;;;;48.92;18.52;;;;;;;-3.53;77.18;99061.64;2161299;82;21710;-64
2020/12/27 03:35:03;;;;;;;48.90;18.12;;;;;;;-3.53;77.24;99052.23;2161229;82;21269;-64
2020/12/27 03:38:06;;;;;;;44.50;16.57;;;;;;;-3.50;77.30;99056.51;2161576;82;21288;-64
2020/12/27 03:41:08;;;;;;;;;;;;;;;-3.54;77.20;99047.95;2163858;82;21726;-63
2020/12/27 03:44:10;;;;;;;58.87;21.47;;;;;;;-3.57;77.13;99044.10;2161297;82;20225;-64
2020/12/27 03:47:12;;;;;;;58.60;20.95;;;;;;;-3.55;77.35;99038.56;2161198;82;21262;-69
2020/12/27 03:50:15;;;;;;;61.37;21.30;;;;;;;-3.55;77.20;99033.84;2140166;82;21595;-68
2020/12/27 03:53:17;;;;;;;75.62;26.97;;;;;;;-3.56;77.31;99032.13;2161433;82;21257;-68
2020/12/27 03:56:19;;;;;;;93.22;32.23;;;;;;;-3.55;77.28;99034.72;2161283;82;21771;-69
2020/12/27 03:59:21;;;;;;;74.25;26.73;;;;;;;-3.55;77.46;99029.59;2140410;82;21265;-69
2020/12/27 04:02:23;;;;;;;69.85;27.75;;;;;;;-3.56;77.41;99034.28;2161136;82;21135;-70
2020/12/27 04:05:25;;;;;;;62.45;24.45;;;;;;;-3.54;77.55;99033.84;2161403;82;21302;-69
2020/12/27 04:08:27;;;;;;;51.33;19.17;;;;;;;-3.53;77.49;99026.58;2161274;82;21285;-69
2020/12/27 04:11:29;;;;;;;54.90;18.40;;;;;;;-3.56;77.50;99017.61;2161574;82;21287;-68
2020/12/27 04:14:32;;;;;;;55.23;21.65;;;;;;;-3.56;77.66;99016.33;2161401;82;21278;-66
2020/12/27 04:17:34;;;;;;;43.68;17.32;;;;;;;-3.59;77.51;99002.64;2161164;82;21131;-67
2020/12/27 04:20:36;;;;;;;48.40;18.27;;;;;;;-3.63;77.72;99008.22;2161274;82;21757;-68
2020/12/27 04:23:38;;;;;;;54.27;18.75;;;;;;;-3.58;77.64;99006.48;2161274;82;21298;-65
2020/12/27 04:26:40;;;;;;;45.75;17.70;;;;;;;-3.55;77.59;99005.63;2140776;82;21303;-68
2020/12/27 04:29:42;;;;;;;53.90;19.95;;;;;;;-3.58;77.40;99005.20;2161509;82;21726;-66
2020/12/27 04:32:44;;;;;;;51.05;20.00;;;;;;;-3.55;77.52;98996.66;2161135;82;21147;-65
2020/12/27 04:35:46;;;;;;;51.73;17.70;;;;;;;-3.55;77.66;98989.84;2161652;82;21139;-66
2020/12/27 04:38:49;;;;;;;44.85;16.93;;;;;;;-3.53;77.40;98982.98;2161382;82;21706;-68
2020/12/27 04:41:51;;;;;;;42.05;16.67;;;;;;;-3.58;77.30;98973.59;2161108;82;21163;-68
2020/12/27 04:44:53;;;;;;;45.03;16.62;;;;;;;-3.59;77.47;98974.44;2140184;82;21725;-65
2020/12/27 04:47:55;;;;;;;53.42;19.98;;;;;;;-3.60;77.50;98971.03;2161169;82;21139;-65
2020/12/27 04:50:57;;;;;;;55.48;23.98;;;;;;;-3.55;77.41;98963.32;2164150;81;21147;-65
2020/12/27 04:53:59;;;;;;;66.90;25.68;;;;;;;-3.56;77.24;98957.35;2171749;81;21147;-64
2020/12/27 04:57:02;;;;;;;61.58;24.20;;;;;;;-3.59;77.17;98950.95;2142285;82;21289;-65
2020/12/27 05:00:04;;;;;;;49.10;18.23;;;;;;;-3.60;77.17;98953.52;2171736;81;21180;-63
2020/12/27 05:03:06;;;;;;;44.03;14.60;;;;;;;-3.59;77.22;98953.52;2171372;81;21732;-66
2020/12/27 05:06:08;;;;;;;41.77;14.73;;;;;;;-3.61;77.29;98955.21;2171502;81;21281;-70
2020/12/27 05:09:10;;;;;;;39.48;14.05;;;;;;;-3.62;77.18;98941.11;2171361;82;21729;-69
2020/12/27 05:12:13;;;;;;;;;;;;;;;-3.62;77.17;98945.83;2173684;82;21273;-66
2020/12/27 05:15:18;;;;;;;38.02;13.80;;;;;;;-3.69;77.16;98938.56;2171391;82;20260;-69
2020/12/27 05:18:20;;;;;;;67.92;23.42;;;;;;;-3.72;77.38;98937.30;2171172;81;21285;-69
2020/12/27 05:21:22;;;;;;;56.68;20.50;;;;;;;-3.73;77.36;98924.48;2171261;81;21262;-70
2020/12/27 05:24:25;;;;;;;67.10;23.85;;;;;;;-3.69;77.40;98923.63;2171511;82;21573;-70
2020/12/27 05:27:27;;;;;;;58.55;22.20;;;;;;;-3.68;77.27;98917.20;2171265;82;21257;-70
2020/12/27 05:30:29;;;;;;;42.50;15.13;;;;;;;-3.71;77.14;98913.34;2171271;81;21288;-68
2020/12/27 05:33:31;;;;;;;38.45;14.78;;;;;;;-3.73;77.37;98918.91;2171449;81;21698;-69
2020/12/27 05:36:33;;;;;;;44.18;16.40;;;;;;;-3.80;77.28;98915.94;2171260;82;21159;-69
2020/12/27 05:39:36;;;;;;;45.63;15.63;;;;;;;-3.83;77.41;98918.52;2171498;82;21321;-70
2020/12/27 05:42:38;;;;;;;43.87;14.38;;;;;;;-3.87;77.58;98910.39;2171677;81;21116;-69
2020/12/27 05:45:40;;;;;;;43.90;15.28;;;;;;;-3.86;77.56;98912.95;2171483;81;21702;-69
2020/12/27 05:48:42;;;;;;;40.63;15.25;;;;;;;-3.86;77.53;98905.70;2171374;82;21273;-65
2020/12/27 05:51:44;;;;;;;46.55;18.27;;;;;;;-3.88;77.70;98915.09;2149548;81;21268;-65
2020/12/27 05:54:46;;;;;;;45.78;18.23;;;;;;;-3.90;77.64;98916.38;2160116;81;21285;-64
2020/12/27 05:57:49;;;;;;;84.92;30.80;;;;;;;-3.94;77.60;98923.63;2188158;81;21256;-65
2020/12/27 06:00:51;;;;;;;84.42;30.85;;;;;;;-3.94;77.70;98918.51;2188124;81;21282;-65
2020/12/27 06:03:53;;;;;;;83.00;29.50;;;;;;;-3.91;77.68;98917.66;2188242;81;21281;-64
2020/12/27 06:06:55;;;;;;;48.73;16.82;;;;;;;-3.91;77.63;98924.91;2160245;81;21274;-64
2020/12/27 06:09:57;;;;;;;44.00;16.62;;;;;;;-3.93;77.47;98923.23;2188594;81;21268;-64
2020/12/27 06:12:59;;;;;;;50.48;18.62;;;;;;;-3.91;77.50;98924.91;2188117;81;21582;-64
2020/12/27 06:16:01;;;;;;;85.97;31.27;;;;;;;-3.94;77.63;98916.38;2188194;81;21725;-64
2020/12/27 06:19:04;;;;;;;78.33;28.27;;;;;;;-3.92;77.54;98915.94;2188265;81;21146;-65
2020/12/27 06:22:06;;;;;;;61.25;22.48;;;;;;;-3.91;77.60;98920.22;2188296;81;21321;-67
2020/12/27 06:25:08;;;;;;;63.38;24.23;;;;;;;-3.94;77.52;98921.07;2188086;81;21130;-68
2020/12/27 06:28:10;;;;;;;62.93;23.75;;;;;;;-3.95;77.58;98919.39;2188103;81;21177;-70
2020/12/27 06:31:12;;;;;;;47.88;18.60;;;;;;;-3.95;77.67;98927.48;2188323;81;21305;-67
2020/12/27 06:34:14;;;;;;;48.33;17.17;;;;;;;-3.96;77.61;98916.83;2160393;81;21134;-69
2020/12/27 06:37:16;;;;;;;48.80;17.60;;;;;;;-4.00;77.73;98924.93;2188066;81;21169;-68
2020/12/27 06:40:18;;;;;;;40.05;14.35;;;;;;;-3.93;77.76;98915.54;2188600;81;21276;-67
2020/12/27 06:43:21;;;;;;;55.15;20.25;;;;;;;-3.96;77.63;98919.39;2188224;81;21300;-65
2020/12/27 06:46:25;;;;;;;54.05;20.50;;;;;;;-4.01;77.78;98925.37;2188532;81;21279;-67
2020/12/27 06:49:28;;;;;;;44.95;16.75;;;;;;;-4.04;77.85;98935.63;2188281;81;21265;-68
2020/12/27 06:52:30;;;;;;;46.25;16.65;;;;;;;-3.98;77.88;98933.45;2182725;81;21309;-68
2020/12/27 06:55:32;;;;;;;40.28;16.40;;;;;;;-3.98;77.74;98928.77;2178929;82;21102;-70
2020/12/27 06:58:35;;;;;;;44.15;17.20;;;;;;;-4.04;77.97;98924.09;2179141;82;21158;-70
2020/12/27 07:01:37;;;;;;;70.10;25.57;;;;;;;-4.05;77.93;98922.78;2178731;82;21312;-69
2020/12/27 07:04:39;;;;;;;75.65;28.40;;;;;;;-4.03;78.03;98925.78;2179036;82;21142;-70
2020/12/27 07:07:41;;;;;;;48.45;17.32;;;;;;;-4.03;78.11;98927.50;2178649;82;21288;-69
2020/12/27 07:10:44;;;;;;;45.25;16.02;;;;;;;-4.04;78.00;98925.38;2178856;82;21523;-68
2020/12/27 07:13:46;;;;;;;80.10;27.70;;;;;;;-4.00;78.18;98930.05;2178786;82;21166;-68
2020/12/27 07:16:48;;;;;;;67.32;24.23;;;;;;;-3.94;78.08;98922.35;2178789;82;21298;-69
2020/12/27 07:19:51;;;;;;;50.80;17.50;;;;;;;-3.87;78.07;98915.52;2178660;82;21277;-68
2020/12/27 07:22:53;;;;;;;45.95;15.85;;;;;;;-3.83;77.90;98907.82;2178617;82;21308;-69
2020/12/27 07:25:55;;;;;;;43.23;14.68;;;;;;;-3.79;78.08;98911.25;2178627;82;21898;-70
2020/12/27 07:28:58;;;;;;;46.20;16.17;;;;;;;-3.67;77.76;98910.36;2178852;82;21162;-68
2020/12/27 07:32:00;;;;;;;45.10;17.82;;;;;;;-3.61;77.78;98909.05;2178613;82;21264;-70
2020/12/27 07:35:02;;;;;;;45.78;16.80;;;;;;;-3.60;77.57;98905.64;2178881;82;21111;-65
2020/12/27 07:38:04;;;;;;;37.88;15.03;;;;;;;-3.60;77.54;98895.39;2179122;82;21155;-64
2020/12/27 07:41:06;;;;;;;45.28;15.93;;;;;;;-3.57;77.45;98891.97;2178642;82;21320;-66
2020/12/27 07:44:08;;;;;;;50.50;17.73;;;;;;;-3.52;77.54;98886.38;2150823;82;21558;-67
2020/12/27 07:47:11;;;;;;;;;;;;;;;-3.43;77.53;98891.49;2181201;82;21281;-66
2020/12/27 07:50:13;;;;;;;62.83;24.47;;;;;;;-3.33;77.11;98880.34;2178986;82;20225;-65
2020/12/27 07:53:16;;;;;;;54.38;20.48;;;;;;;-3.26;77.00;98873.48;2178813;82;21166;-65
2020/12/27 07:56:18;;;;;;;47.70;16.25;;;;;;;-3.24;76.93;98861.48;2178732;82;21693;-64
2020/12/27 07:59:21;;;;;;;42.95;15.45;;;;;;;-3.18;77.01;98864.45;2178704;82;21551;-65
2020/12/27 08:02:23;;;;;;;45.63;16.60;;;;;;;-3.09;76.67;98860.98;2178557;82;21285;-65
2020/12/27 08:05:25;;;;;;;42.85;16.60;;;;;;;-3.00;76.85;98855.81;2178832;82;21753;-66
2020/12/27 08:08:27;;;;;;;46.08;16.40;;;;;;;-2.90;76.66;98841.19;2178540;82;21269;-65
2020/12/27 08:11:30;;;;;;;43.10;17.10;;;;;;;-2.71;76.40;98838.09;2150922;82;21264;-65
2020/12/27 08:14:32;;;;;;;62.65;21.95;;;;;;;-2.62;76.26;98822.59;2179076;82;21265;-65
2020/12/27 08:17:34;;;;;;;57.58;19.32;;;;;;;-2.51;75.76;98810.52;2178718;82;21748;-68
2020/12/27 08:20:36;;;;;;;44.88;16.20;;;;;;;-2.41;75.33;98813.88;2178565;82;21296;-66
2020/12/27 08:23:38;;;;;;;40.00;15.68;;;;;;;-2.29;75.29;98808.61;2179013;82;21149;-65
2020/12/27 08:26:41;;;;;;;39.83;16.02;;;;;;;-2.10;75.43;98812.28;2178893;82;21785;-65
2020/12/27 08:29:43;;;;;;;42.15;16.00;;;;;;;-1.96;75.00;98796.28;2178823;82;21261;-65
2020/12/27 08:32:45;;;;;;;44.50;17.80;;;;;;;-1.85;74.86;98788.87;2178549;82;21269;-65
2020/12/27 08:35:47;;;;;;;39.00;15.28;;;;;;;-1.71;74.83;98783.17;2178636;82;21300;-68
2020/12/27 08:38:49;;;;;;;47.38;16.55;;;;;;;-1.53;74.48;98781.23;2178801;82;21162;-64
2020/12/27 08:41:52;;;;;;;45.88;15.65;;;;;;;-1.44;73.59;98775.55;2178979;82;21146;-65
2020/12/27 08:44:54;;;;;;;46.10;17.23;;;;;;;-1.37;73.56;98784.02;2178585;82;21135;-65
2020/12/27 08:47:56;;;;;;;;;;;;;;;-1.33;72.78;98779.69;2181486;82;21138;-65
2020/12/27 08:50:59;;;;;;;52.97;18.87;;;;;;;-1.22;73.61;98768.37;2178774;82;20489;-65
2020/12/27 08:54:01;;;;;;;49.03;19.55;;;;;;;-1.09;73.47;98760.48;2162290;81;21140;-65
2020/12/27 08:57:03;;;;;;;57.45;20.60;;;;;;;-0.91;73.35;98760.63;2161148;82;21261;-65
2020/12/27 09:00:05;;;;;;;56.92;21.33;;;;;;;-0.89;72.26;98763.59;2161265;82;21729;-67
2020/12/27 09:03:07;;;;;;;42.08;16.05;;;;;;;-0.83;72.90;98760.08;2161199;82;21163;-65
2020/12/27 09:06:09;;;;;;;47.23;16.07;;;;;;;-0.63;72.17;98748.16;2161324;82;21281;-68
2020/12/27 09:09:11;;;;;;;42.15;15.68;;;;;;;-0.47;72.60;98750.03;2140278;82;21270;-65
2020/12/27 09:12:14;;;;;;;45.88;16.40;;;;;;;-0.34;71.71;98746.80;2161342;82;21269;-68
2020/12/27 09:15:16;;;;;;;44.65;16.65;;;;;;;-0.27;71.76;98738.52;2140374;82;21285;-66
2020/12/27 09:18:18;;;;;;;41.77;16.15;;;;;;;-0.19;71.33;98737.92;2161223;82;21730;-69
2020/12/27 09:21:21;;;;;;;40.73;15.18;;;;;;;-0.05;71.50;98740.25;2161284;82;21322;-68
2020/12/27 09:24:23;;;;;;;43.50;15.45;;;;;;;-0.02;71.25;98728.58;2140156;82;21262;-70
2020/12/27 09:27:25;;;;;;;48.80;17.75;;;;;;;0.13;71.38;98722.25;2161587;82;21287;-68
2020/12/27 09:30:30;;;;;;;39.67;15.58;;;;;;;0.27;71.30;98709.08;2161240;82;21305;-69
2020/12/27 09:33:35;;;;;;;54.08;21.48;;;;;;;0.45;70.57;98697.52;2161087;82;21155;-69
2020/12/27 09:36:38;;;;;;;46.98;19.10;;;;;;;0.56;69.83;98691.69;2161432;82;21265;-68
2020/12/27 09:39:40;;;;;;;47.13;19.10;;;;;;;0.64;69.85;98689.76;2140523;82;21258;-68
2020/12/27 09:42:42;;;;;;;42.50;15.80;;;;;;;0.78;68.48;98680.86;2161299;82;21167;-67
2020/12/27 09:45:44;;;;;;;35.75;13.10;;;;;;;0.80;69.91;98674.75;2161555;82;21304;-69
2020/12/27 09:48:47;;;;;;;38.85;13.58;;;;;;;0.91;68.92;98663.34;2161057;82;21164;-66
2020/12/27 09:51:50;;;;;;;36.20;13.30;;;;;;;0.95;68.01;98672.69;2162131;81;21242;-68
2020/12/27 09:54:52;;;;;;;44.60;17.60;;;;;;;1.00;67.78;98660.06;2171606;82;21265;-69
2020/12/27 09:57:54;;;;;;;42.20;17.48;;;;;;;1.05;67.92;98665.14;2171183;82;21304;-67
2020/12/27 10:00:56;;;;;;;37.55;13.05;;;;;;;1.04;68.27;98667.31;2171384;82;21316;-69
2020/12/27 10:03:58;;;;;;;37.00;12.75;;;;;;;1.00;66.79;98669.11;2171459;81;21272;-65
2020/12/27 10:07:01;;;;;;;36.63;12.98;;;;;;;0.93;67.09;98666.73;2171217;81;21661;-65
2020/12/27 10:10:04;;;;;;;36.42;12.75;;;;;;;0.96;67.59;98662.34;2171703;81;21139;-65
2020/12/27 10:13:06;;;;;;;34.23;11.25;;;;;;;0.94;67.78;98653.77;2171328;82;21317;-66
2020/12/27 10:16:09;;;;;;;36.30;13.78;;;;;;;1.03;65.53;98650.11;2171680;82;21135;-65
2020/12/27 10:19:11;;;;;;;34.83;12.80;;;;;;;1.07;66.76;98637.98;2171314;81;21288;-65
2020/12/27 10:22:13;;;;;;;35.28;12.20;;;;;;;1.20;67.36;98635.48;2171170;82;21281;-65
2020/12/27 10:25:15;;;;;;;30.57;11.22;;;;;;;1.34;67.28;98635.96;2171493;81;21316;-66
2020/12/27 10:28:17;;;;;;;33.65;12.90;;;;;;;1.41;67.27;98629.33;2171238;82;21269;-67
2020/12/27 10:31:20;;;;;;;34.98;12.63;;;;;;;1.43;65.98;98622.39;2171202;82;21143;-65
2020/12/27 10:34:22;;;;;;;58.80;23.57;;;;;;;1.43;64.94;98606.89;2171681;81;21151;-65
2020/12/27 10:37:24;;;;;;;39.42;15.43;;;;;;;1.53;67.16;98592.81;2171312;82;21281;-66
2020/12/27 10:40:26;;;;;;;37.20;13.32;;;;;;;1.65;65.91;98591.19;2171428;82;21731;-65
2020/12/27 10:43:28;;;;;;;38.70;14.23;;;;;;;1.67;65.34;98573.88;2171182;82;21273;-65
2020/12/27 10:46:31;;;;;;;34.98;12.93;;;;;;;1.68;65.80;98565.23;2171202;81;21713;-66
2020/12/27 10:49:33;;;;;;;33.58;12.00;;;;;;;1.70;65.24;98553.09;2171601;82;21170;-65
2020/12/27 10:52:35;;;;;;;33.88;12.95;;;;;;;1.63;64.57;98554.17;2173336;81;21265;-65
2020/12/27 10:55:37;;;;;;;33.25;12.18;;;;;;;1.61;64.07;98546.91;2178712;82;21724;-66
2020/12/27 10:58:39;;;;;;;39.38;12.93;;;;;;;1.59;65.45;98531.05;2178690;82;21143;-65
2020/12/27 11:01:42;;;;;;;31.02;12.05;;;;;;;1.70;65.89;98523.36;2178601;82;21724;-65
2020/12/27 11:04:44;;;;;;;36.28;13.50;;;;;;;1.78;65.60;98510.64;2178925;82;21143;-66
2020/12/27 11:07:46;;;;;;;34.08;11.90;;;;;;;1.85;65.79;98485.00;2178467;82;21285;-66
2020/12/27 11:10:48;;;;;;;32.10;12.30;;;;;;;1.99;65.44;98485.87;2178910;82;21115;-65
2020/12/27 11:13:51;;;;;;;33.18;12.33;;;;;;;2.07;64.23;98474.38;2178724;82;21269;-66
2020/12/27 11:16:53;;;;;;;40.25;14.98;;;;;;;2.06;64.27;98476.56;2178495;82;21269;-66
2020/12/27 11:19:55;;;;;;;39.65;14.85;;;;;;;1.98;64.47;98472.06;2178414;82;21273;-65
2020/12/27 11:22:58;;;;;;;36.75;13.90;;;;;;;2.10;65.12;98459.64;2178433;82;21143;-65
2020/12/27 11:26:00;;;;;;;38.63;14.28;;;;;;;2.15;63.53;98461.64;2178852;82;21146;-66
2020/12/27 11:29:02;;;;;;;36.88;13.85;;;;;;;2.19;64.61;98452.42;2178968;82;21594;-65
2020/12/27 11:32:04;;;;;;;37.85;13.70;;;;;;;2.18;64.70;98445.55;2178813;82;21292;-67
2020/12/27 11:35:06;;;;;;;36.75;14.07;;;;;;;2.27;65.21;98447.44;2178605;82;21292;-66
2020/12/27 11:38:09;;;;;;;33.48;12.40;;;;;;;2.38;64.75;98439.71;2179082;82;21289;-68
2020/12/27 11:41:12;;;;;;;34.23;12.80;;;;;;;2.43;63.81;98433.11;2178549;82;21159;-66
2020/12/27 11:44:14;;;;;;;36.90;14.15;;;;;;;2.38;64.79;98423.34;2179104;82;21281;-67
2020/12/27 11:47:16;;;;;;;30.95;11.75;;;;;;;2.35;65.07;98425.58;2178679;82;21729;-66
2020/12/27 11:50:18;;;;;;;34.38;12.13;;;;;;;2.41;64.68;98415.04;2178606;82;21292;-67
2020/12/27 11:53:20;;;;;;;33.65;12.07;;;;;;;2.47;64.18;98395.86;2170960;81;21705;-69
2020/12/27 11:56:22;;;;;;;33.53;13.05;;;;;;;2.51;63.51;98387.52;2161668;82;21277;-71
2020/12/27 11:59:25;;;;;;;33.98;13.22;;;;;;;2.50;63.24;98392.30;2161418;82;21746;-67
2020/12/27 12:02:27;;;;;;;40.92;15.95;;;;;;;2.45;63.18;98389.88;2161602;82;21329;-69
2020/12/27 12:05:29;;;;;;;48.87;17.85;;;;;;;2.42;63.98;98387.40;2161635;82;21275;-67
2020/12/27 12:08:31;;;;;;;37.60;14.78;;;;;;;2.44;62.38;98388.17;2161654;82;21257;-66
2020/12/27 12:11:33;;;;;;;40.63;15.55;;;;;;;2.45;62.16;98380.81;2161508;82;21615;-67
2020/12/27 12:14:36;;;;;;;38.20;14.23;;;;;;;2.41;63.67;98372.33;2140189;82;21325;-70
2020/12/27 12:17:38;;;;;;;34.67;13.35;;;;;;;2.36;63.22;98365.62;2161156;82;21111;-69
2020/12/27 12:20:45;;;;;;;39.78;15.05;;;;;;;2.30;63.63;98364.09;2161316;82;21725;-67
2020/12/27 12:23:47;;;;;;;34.38;12.75;;;;;;;2.23;61.04;98354.39;2161381;82;21297;-69
2020/12/27 12:26:49;;;;;;;;;;;;;;;2.22;61.98;98340.20;2163644;82;21114;-67
2020/12/27 12:29:51;;;;;;;31.97;12.20;;;;;;;2.17;63.07;98338.22;2140327;82;20421;-66
2020/12/27 12:32:54;;;;;;;35.08;13.50;;;;;;;2.15;62.37;98320.62;2161133;82;21139;-66
2020/12/27 12:35:56;;;;;;;36.85;13.88;;;;;;;2.14;63.55;98317.63;2161288;82;21749;-67
2020/12/27 12:38:58;;;;;;;38.55;15.32;;;;;;;2.08;63.77;98313.08;2161604;82;21128;-68
2020/12/27 12:42:00;;;;;;;37.20;14.55;;;;;;;2.07;63.80;98313.97;2161544;82;21301;-66
2020/12/27 12:45:03;;;;;;;37.38;13.90;;;;;;;2.09;63.71;98312.62;2161348;82;21274;-66
2020/12/27 12:48:05;;;;;;;38.15;14.80;;;;;;;2.09;64.12;98312.62;2161169;82;21126;-66
2020/12/27 12:51:07;;;;;;;37.28;13.53;;;;;;;1.99;63.95;98301.73;2161260;82;21692;-66
2020/12/27 12:54:09;;;;;;;38.35;14.78;;;;;;;1.91;64.41;98288.22;2172112;81;21272;-68
2020/12/27 12:57:14;;;;;;;34.35;13.90;;;;;;;1.84;65.15;98279.84;2178678;82;21281;-66
2020/12/27 13:00:17;;;;;;;;;;;;;;;1.83;64.48;98268.27;2180991;82;21158;-66
2020/12/27 13:03:19;;;;;;;32.10;12.30;;;;;;;1.79;63.60;98263.63;2178480;82;20496;-67
2020/12/27 13:06:22;;;;;;;35.28;13.75;;;;;;;1.70;63.78;98269.13;2178777;82;21680;-69
2020/12/27 13:09:24;;;;;;;31.70;12.07;;;;;;;1.72;64.95;98273.36;2178707;82;21738;-68
2020/12/27 13:12:27;;;;;;;35.08;12.70;;;;;;;1.73;64.40;98270.31;2150769;82;21731;-66
2020/12/27 13:15:29;;;;;;;;;;;;;;;1.74;63.52;98275.89;2181461;82;21134;-69
2020/12/27 13:18:31;;;;;;;31.40;12.10;;;;;;;1.66;63.65;98267.08;2178747;82;20501;-66
2020/12/27 13:21:33;;;;;;;35.13;12.55;;;;;;;1.58;64.09;98226.44;2178499;82;21324;-66
2020/12/27 13:24:36;;;;;;;35.68;12.33;;;;;;;1.51;64.34;98225.80;2178771;82;21162;-66
2020/12/27 13:27:38;;;;;;;30.92;11.22;;;;;;;1.47;64.48;98192.36;2179028;82;21158;-67
2020/12/27 13:30:41;;;;;;;30.32;11.40;;;;;;;1.46;63.55;98181.61;2178505;82;21273;-66
2020/12/27 13:33:44;;;;;;;31.93;13.10;;;;;;;1.42;64.43;98158.89;2178854;82;21146;-66
2020/12/27 13:36:46;;;;;;;34.27;13.00;;;;;;;1.37;64.05;98159.06;2178593;82;21824;-67
2020/12/27 13:39:48;;;;;;;35.35;13.13;;;;;;;1.33;63.73;98151.02;2178779;82;21285;-65
2020/12/27 13:42:50;;;;;;;33.90;12.45;;;;;;;1.31;64.28;98131.31;2178702;82;21300;-67
2020/12/27 13:45:53;;;;;;;32.13;12.47;;;;;;;1.24;64.55;98127.25;2179003;82;21166;-68
2020/12/27 13:48:55;;;;;;;33.05;12.78;;;;;;;1.20;65.15;98145.88;2178611;82;21288;-68
2020/12/27 13:51:57;;;;;;;33.25;12.15;;;;;;;1.20;64.89;98124.75;2178557;82;21586;-67
2020/12/27 13:54:59;;;;;;;36.13;13.03;;;;;;;1.13;64.32;98121.98;2178415;81;21170;-70
2020/12/27 13:58:01;;;;;;;33.85;11.93;;;;;;;1.07;65.14;98136.86;2178591;82;21284;-66
2020/12/27 14:01:04;;;;;;;31.02;11.68;;;;;;;1.01;65.35;98155.53;2178787;82;21305;-66
2020/12/27 14:04:06;;;;;;;31.60;11.43;;;;;;;1.00;64.72;98132.34;2178677;82;21740;-66